sensor_id;sensor_type;location;lat;lon;timestamp;temperature;humidity
70676;DHT22;59069;52.242;20.900;2023-04-24T00:02:12;14.01;50.83
70676;DHT22;59069;52.242;20.900;2023-04-24T00:04:38;14.00;51.01
70676;DHT22;59069;52.242;20.900;2023-04-24T00:07:07;13.95;51.17
70676;DHT22;59069;52.242;20.900;2023-04-24T00:09:33;13.95;51.20
70676;DHT22;59069;52.242;20.900;2023-04-24T00:11:58;13.94;51.26
70676;DHT22;59069;52.242;20.900;2023-04-24T00:14:25;13.92;51.37
70676;DHT22;59069;52.242;20.900;2023-04-24T00:16:50;13.92;51.49
70676;DHT22;59069;52.242;20.900;2023-04-24T00:19:15;13.86;51.62
70676;DHT22;59069;52.242;20.900;2023-04-24T00:21:41;13.85;51.66
70676;DHT22;59069;52.242;20.900;2023-04-24T00:24:07;13.82;51.79
70676;DHT22;59069;52.242;20.900;2023-04-24T00:26:34;13.84;51.80
70676;DHT22;59069;52.242;20.900;2023-04-24T00:29:00;13.82;51.86
70676;DHT22;59069;52.242;20.900;2023-04-24T00:31:25;13.81;51.93
70676;DHT22;59069;52.242;20.900;2023-04-24T00:33:51;13.78;52.10
70676;DHT22;59069;52.242;20.900;2023-04-24T00:36:16;13.74;52.26
70676;DHT22;59069;52.242;20.900;2023-04-24T00:38:44;13.70;52.63
70676;DHT22;59069;52.242;20.900;2023-04-24T00:41:10;13.65;52.71
70676;DHT22;59069;52.242;20.900;2023-04-24T00:43:35;13.65;52.79
70676;DHT22;59069;52.242;20.900;2023-04-24T00:46:01;13.63;52.96
70676;DHT22;59069;52.242;20.900;2023-04-24T00:48:27;13.60;53.10
70676;DHT22;59069;52.242;20.900;2023-04-24T00:50:53;13.55;53.19
70676;DHT22;59069;52.242;20.900;2023-04-24T00:53:18;13.53;53.21
70676;DHT22;59069;52.242;20.900;2023-04-24T00:55:44;13.50;53.27
70676;DHT22;59069;52.242;20.900;2023-04-24T00:58:10;13.46;53.19
70676;DHT22;59069;52.242;20.900;2023-04-24T01:00:35;13.46;53.17
70676;DHT22;59069;52.242;20.900;2023-04-24T01:03:01;13.43;53.19
70676;DHT22;59069;52.242;20.900;2023-04-24T01:05:29;13.44;53.10
70676;DHT22;59069;52.242;20.900;2023-04-24T01:07:55;13.46;53.10
70676;DHT22;59069;52.242;20.900;2023-04-24T01:10:21;13.46;53.11
70676;DHT22;59069;52.242;20.900;2023-04-24T01:12:47;13.46;53.12
70676;DHT22;59069;52.242;20.900;2023-04-24T01:15:12;13.43;53.20
70676;DHT22;59069;52.242;20.900;2023-04-24T01:17:37;13.42;53.16
70676;DHT22;59069;52.242;20.900;2023-04-24T01:20:04;13.39;53.26
70676;DHT22;59069;52.242;20.900;2023-04-24T01:22:30;13.40;53.31
70676;DHT22;59069;52.242;20.900;2023-04-24T01:24:56;13.34;53.36
70676;DHT22;59069;52.242;20.900;2023-04-24T01:27:22;13.33;53.40
70676;DHT22;59069;52.242;20.900;2023-04-24T01:29:48;13.34;53.45
70676;DHT22;59069;52.242;20.900;2023-04-24T01:32:14;13.34;53.57
70676;DHT22;59069;52.242;20.900;2023-04-24T01:34:40;13.32;53.68
70676;DHT22;59069;52.242;20.900;2023-04-24T01:37:06;13.28;53.79
70676;DHT22;59069;52.242;20.900;2023-04-24T01:39:32;13.32;53.67
70676;DHT22;59069;52.242;20.900;2023-04-24T01:41:59;13.30;53.57
70676;DHT22;59069;52.242;20.900;2023-04-24T01:44:25;13.33;53.51
70676;DHT22;59069;52.242;20.900;2023-04-24T01:46:51;13.34;53.46
70676;DHT22;59069;52.242;20.900;2023-04-24T01:49:18;13.33;53.43
70676;DHT22;59069;52.242;20.900;2023-04-24T01:51:43;13.34;53.46
70676;DHT22;59069;52.242;20.900;2023-04-24T01:54:09;13.33;53.46
70676;DHT22;59069;52.242;20.900;2023-04-24T01:56:35;13.36;53.41
70676;DHT22;59069;52.242;20.900;2023-04-24T01:59:03;13.34;53.27
70676;DHT22;59069;52.242;20.900;2023-04-24T02:01:36;13.36;53.21
70676;DHT22;59069;52.242;20.900;2023-04-24T02:04:02;13.39;52.98
70676;DHT22;59069;52.242;20.900;2023-04-24T02:06:28;13.40;52.87
70676;DHT22;59069;52.242;20.900;2023-04-24T02:08:53;13.40;52.89
70676;DHT22;59069;52.242;20.900;2023-04-24T02:11:19;13.42;52.88
70676;DHT22;59069;52.242;20.900;2023-04-24T02:13:44;13.40;52.85
70676;DHT22;59069;52.242;20.900;2023-04-24T02:16:10;13.40;52.91
70676;DHT22;59069;52.242;20.900;2023-04-24T02:18:35;13.36;52.99
70676;DHT22;59069;52.242;20.900;2023-04-24T02:21:01;13.36;52.97
70676;DHT22;59069;52.242;20.900;2023-04-24T02:23:26;13.32;53.09
70676;DHT22;59069;52.242;20.900;2023-04-24T02:25:52;13.27;53.06
70676;DHT22;59069;52.242;20.900;2023-04-24T02:28:18;13.28;53.15
70676;DHT22;59069;52.242;20.900;2023-04-24T02:30:44;13.26;53.30
70676;DHT22;59069;52.242;20.900;2023-04-24T02:33:11;13.27;53.41
70676;DHT22;59069;52.242;20.900;2023-04-24T02:35:36;13.22;53.53
70676;DHT22;59069;52.242;20.900;2023-04-24T02:38:02;13.22;53.61
70676;DHT22;59069;52.242;20.900;2023-04-24T02:40:28;13.19;53.71
70676;DHT22;59069;52.242;20.900;2023-04-24T02:42:54;13.14;53.78
70676;DHT22;59069;52.242;20.900;2023-04-24T02:45:19;13.12;53.91
70676;DHT22;59069;52.242;20.900;2023-04-24T02:47:45;13.12;53.98
70676;DHT22;59069;52.242;20.900;2023-04-24T02:50:10;13.09;54.05
70676;DHT22;59069;52.242;20.900;2023-04-24T02:52:35;13.07;54.10
70676;DHT22;59069;52.242;20.900;2023-04-24T02:55:01;13.06;54.14
70676;DHT22;59069;52.242;20.900;2023-04-24T02:57:27;13.03;54.36
70676;DHT22;59069;52.242;20.900;2023-04-24T02:59:52;12.99;54.45
70676;DHT22;59069;52.242;20.900;2023-04-24T03:02:17;12.99;54.49
70676;DHT22;59069;52.242;20.900;2023-04-24T03:04:43;12.99;54.48
70676;DHT22;59069;52.242;20.900;2023-04-24T03:07:08;12.95;54.55
70676;DHT22;59069;52.242;20.900;2023-04-24T03:09:34;12.93;54.66
70676;DHT22;59069;52.242;20.900;2023-04-24T03:11:59;12.93;54.63
70676;DHT22;59069;52.242;20.900;2023-04-24T03:14:25;12.92;54.68
70676;DHT22;59069;52.242;20.900;2023-04-24T03:16:51;12.86;54.71
70676;DHT22;59069;52.242;20.900;2023-04-24T03:19:16;12.89;54.80
70676;DHT22;59069;52.242;20.900;2023-04-24T03:21:42;12.88;54.73
70676;DHT22;59069;52.242;20.900;2023-04-24T03:24:08;12.88;54.66
70676;DHT22;59069;52.242;20.900;2023-04-24T03:26:34;12.93;54.46
70676;DHT22;59069;52.242;20.900;2023-04-24T03:29:00;12.91;54.46
70676;DHT22;59069;52.242;20.900;2023-04-24T03:31:25;12.92;54.36
70676;DHT22;59069;52.242;20.900;2023-04-24T03:33:51;12.92;54.34
70676;DHT22;59069;52.242;20.900;2023-04-24T03:36:16;12.93;54.25
70676;DHT22;59069;52.242;20.900;2023-04-24T03:38:42;12.95;54.11
70676;DHT22;59069;52.242;20.900;2023-04-24T03:41:08;12.96;54.05
70676;DHT22;59069;52.242;20.900;2023-04-24T03:43:33;12.97;53.93
70676;DHT22;59069;52.242;20.900;2023-04-24T03:46:00;12.96;53.97
70676;DHT22;59069;52.242;20.900;2023-04-24T03:48:25;12.96;53.85
70676;DHT22;59069;52.242;20.900;2023-04-24T03:50:51;12.95;53.72
70676;DHT22;59069;52.242;20.900;2023-04-24T03:53:16;12.97;53.88
70676;DHT22;59069;52.242;20.900;2023-04-24T03:55:42;12.99;53.81
70676;DHT22;59069;52.242;20.900;2023-04-24T03:58:07;12.99;53.77
70676;DHT22;59069;52.242;20.900;2023-04-24T04:00:33;13.02;53.89
70676;DHT22;59069;52.242;20.900;2023-04-24T04:02:59;13.02;53.76
70676;DHT22;59069;52.242;20.900;2023-04-24T04:05:25;13.03;53.73
70676;DHT22;59069;52.242;20.900;2023-04-24T04:07:50;13.06;53.64
70676;DHT22;59069;52.242;20.900;2023-04-24T04:10:16;13.06;53.58
70676;DHT22;59069;52.242;20.900;2023-04-24T04:12:42;13.09;53.69
70676;DHT22;59069;52.242;20.900;2023-04-24T04:15:08;13.12;53.67
70676;DHT22;59069;52.242;20.900;2023-04-24T04:17:33;13.16;53.59
70676;DHT22;59069;52.242;20.900;2023-04-24T04:19:59;13.20;53.52
70676;DHT22;59069;52.242;20.900;2023-04-24T04:22:25;13.23;53.51
70676;DHT22;59069;52.242;20.900;2023-04-24T04:24:50;13.23;53.52
70676;DHT22;59069;52.242;20.900;2023-04-24T04:27:16;13.26;53.31
70676;DHT22;59069;52.242;20.900;2023-04-24T04:29:44;13.23;53.36
70676;DHT22;59069;52.242;20.900;2023-04-24T04:32:09;13.23;53.46
70676;DHT22;59069;52.242;20.900;2023-04-24T04:34:35;13.20;53.40
70676;DHT22;59069;52.242;20.900;2023-04-24T04:37:02;13.22;53.63
70676;DHT22;59069;52.242;20.900;2023-04-24T04:39:28;13.26;53.74
70676;DHT22;59069;52.242;20.900;2023-04-24T04:41:55;13.30;53.81
70676;DHT22;59069;52.242;20.900;2023-04-24T04:44:20;13.34;53.65
70676;DHT22;59069;52.242;20.900;2023-04-24T04:46:46;13.40;53.43
70676;DHT22;59069;52.242;20.900;2023-04-24T04:49:12;13.51;53.46
70676;DHT22;59069;52.242;20.900;2023-04-24T04:51:38;13.61;53.28
70676;DHT22;59069;52.242;20.900;2023-04-24T04:54:03;13.73;53.19
70676;DHT22;59069;52.242;20.900;2023-04-24T04:56:29;13.89;53.00
70676;DHT22;59069;52.242;20.900;2023-04-24T04:58:55;14.02;52.69
70676;DHT22;59069;52.242;20.900;2023-04-24T05:01:20;14.15;52.28
70676;DHT22;59069;52.242;20.900;2023-04-24T05:03:49;14.26;51.88
70676;DHT22;59069;52.242;20.900;2023-04-24T05:06:14;14.39;51.70
70676;DHT22;59069;52.242;20.900;2023-04-24T05:08:40;14.53;51.57
70676;DHT22;59069;52.242;20.900;2023-04-24T05:11:06;14.67;51.45
70676;DHT22;59069;52.242;20.900;2023-04-24T05:13:31;14.84;51.16
70676;DHT22;59069;52.242;20.900;2023-04-24T05:15:57;14.96;50.91
70676;DHT22;59069;52.242;20.900;2023-04-24T05:18:22;15.10;50.42
70676;DHT22;59069;52.242;20.900;2023-04-24T05:20:48;15.17;50.15
70676;DHT22;59069;52.242;20.900;2023-04-24T05:23:14;15.28;50.19
70676;DHT22;59069;52.242;20.900;2023-04-24T05:25:39;15.32;49.66
70676;DHT22;59069;52.242;20.900;2023-04-24T05:28:06;15.34;49.38
70676;DHT22;59069;52.242;20.900;2023-04-24T05:30:32;15.34;49.34
70676;DHT22;59069;52.242;20.900;2023-04-24T05:32:57;15.34;49.48
70676;DHT22;59069;52.242;20.900;2023-04-24T05:35:23;15.35;49.56
70676;DHT22;59069;52.242;20.900;2023-04-24T05:37:48;15.39;49.57
70676;DHT22;59069;52.242;20.900;2023-04-24T05:40:14;15.47;49.62
70676;DHT22;59069;52.242;20.900;2023-04-24T05:42:39;15.52;49.68
70676;DHT22;59069;52.242;20.900;2023-04-24T05:45:05;15.56;49.59
70676;DHT22;59069;52.242;20.900;2023-04-24T05:47:31;15.59;49.44
70676;DHT22;59069;52.242;20.900;2023-04-24T05:49:56;15.61;49.34
70676;DHT22;59069;52.242;20.900;2023-04-24T05:52:22;15.69;49.51
70676;DHT22;59069;52.242;20.900;2023-04-24T05:54:47;15.75;49.42
70676;DHT22;59069;52.242;20.900;2023-04-24T05:57:13;15.76;49.42
70676;DHT22;59069;52.242;20.900;2023-04-24T05:59:40;15.82;49.33
70676;DHT22;59069;52.242;20.900;2023-04-24T06:02:06;15.86;49.37
70676;DHT22;59069;52.242;20.900;2023-04-24T06:04:32;15.93;49.28
70676;DHT22;59069;52.242;20.900;2023-04-24T06:06:57;16.07;49.47
70676;DHT22;59069;52.242;20.900;2023-04-24T06:09:23;16.21;49.44
70676;DHT22;59069;52.242;20.900;2023-04-24T06:11:49;16.41;48.82
70676;DHT22;59069;52.242;20.900;2023-04-24T06:14:15;16.60;48.53
70676;DHT22;59069;52.242;20.900;2023-04-24T06:16:42;16.81;47.86
70676;DHT22;59069;52.242;20.900;2023-04-24T06:19:08;17.07;47.86
70676;DHT22;59069;52.242;20.900;2023-04-24T06:21:33;17.30;47.29
70676;DHT22;59069;52.242;20.900;2023-04-24T06:23:59;17.57;46.75
70676;DHT22;59069;52.242;20.900;2023-04-24T06:26:25;17.86;46.38
70676;DHT22;59069;52.242;20.900;2023-04-24T06:28:51;18.12;45.38
70676;DHT22;59069;52.242;20.900;2023-04-24T06:31:19;18.37;44.69
70676;DHT22;59069;52.242;20.900;2023-04-24T06:33:45;18.51;43.39
70676;DHT22;59069;52.242;20.900;2023-04-24T06:36:10;18.62;42.78
70676;DHT22;59069;52.242;20.900;2023-04-24T06:38:36;18.75;42.57
70676;DHT22;59069;52.242;20.900;2023-04-24T06:41:01;18.83;42.35
70676;DHT22;59069;52.242;20.900;2023-04-24T06:43:27;18.96;42.01
70676;DHT22;59069;52.242;20.900;2023-04-24T06:45:52;19.07;41.91
70676;DHT22;59069;52.242;20.900;2023-04-24T06:48:17;19.23;41.63
70676;DHT22;59069;52.242;20.900;2023-04-24T06:50:43;19.30;41.14
70676;DHT22;59069;52.242;20.900;2023-04-24T06:53:08;19.38;41.08
70676;DHT22;59069;52.242;20.900;2023-04-24T06:55:36;19.50;40.84
70676;DHT22;59069;52.242;20.900;2023-04-24T06:58:01;19.63;40.73
70676;DHT22;59069;52.242;20.900;2023-04-24T07:00:27;19.78;40.90
70676;DHT22;59069;52.242;20.900;2023-04-24T07:02:52;19.95;40.20
70676;DHT22;59069;52.242;20.900;2023-04-24T07:05:18;20.06;39.84
70676;DHT22;59069;52.242;20.900;2023-04-24T07:07:46;20.18;39.46
70676;DHT22;59069;52.242;20.900;2023-04-24T07:10:12;20.26;39.66
70676;DHT22;59069;52.242;20.900;2023-04-24T07:12:38;20.45;40.01
70676;DHT22;59069;52.242;20.900;2023-04-24T07:15:05;20.63;39.02
70676;DHT22;59069;52.242;20.900;2023-04-24T07:17:30;20.74;38.58
70676;DHT22;59069;52.242;20.900;2023-04-24T07:19:56;20.88;38.20
70676;DHT22;59069;52.242;20.900;2023-04-24T07:22:21;21.03;37.83
70676;DHT22;59069;52.242;20.900;2023-04-24T07:24:47;21.14;37.17
70676;DHT22;59069;52.242;20.900;2023-04-24T07:27:12;21.28;37.49
70676;DHT22;59069;52.242;20.900;2023-04-24T07:29:40;21.52;37.73
70676;DHT22;59069;52.242;20.900;2023-04-24T07:32:05;21.56;36.84
70676;DHT22;59069;52.242;20.900;2023-04-24T07:34:31;21.59;36.86
70676;DHT22;59069;52.242;20.900;2023-04-24T07:36:57;21.52;36.69
70676;DHT22;59069;52.242;20.900;2023-04-24T07:39:24;21.46;36.99
70676;DHT22;59069;52.242;20.900;2023-04-24T07:41:49;21.38;37.04
70676;DHT22;59069;52.242;20.900;2023-04-24T07:44:15;21.32;37.22
70676;DHT22;59069;52.242;20.900;2023-04-24T07:46:40;21.30;37.73
70676;DHT22;59069;52.242;20.900;2023-04-24T07:49:06;21.46;39.03
70676;DHT22;59069;52.242;20.900;2023-04-24T07:51:32;21.78;38.65
70676;DHT22;59069;52.242;20.900;2023-04-24T07:53:59;22.20;37.40
70676;DHT22;59069;52.242;20.900;2023-04-24T07:56:25;22.60;37.62
70676;DHT22;59069;52.242;20.900;2023-04-24T07:58:51;23.04;37.46
70676;DHT22;59069;52.242;20.900;2023-04-24T08:01:16;23.45;37.56
70676;DHT22;59069;52.242;20.900;2023-04-24T08:03:42;23.84;37.47
70676;DHT22;59069;52.242;20.900;2023-04-24T08:06:07;24.37;37.08
70676;DHT22;59069;52.242;20.900;2023-04-24T08:08:33;24.95;35.07
70676;DHT22;59069;52.242;20.900;2023-04-24T08:10:59;25.43;34.62
70676;DHT22;59069;52.242;20.900;2023-04-24T08:13:25;25.84;32.33
70676;DHT22;59069;52.242;20.900;2023-04-24T08:15:50;25.97;31.72
70676;DHT22;59069;52.242;20.900;2023-04-24T08:18:16;26.31;30.89
70676;DHT22;59069;52.242;20.900;2023-04-24T08:20:41;26.21;28.84
70676;DHT22;59069;52.242;20.900;2023-04-24T08:23:07;26.41;31.49
70676;DHT22;59069;52.242;20.900;2023-04-24T08:25:32;26.73;28.74
70676;DHT22;59069;52.242;20.900;2023-04-24T08:28:01;27.37;29.96
70676;DHT22;59069;52.242;20.900;2023-04-24T08:30:27;28.08;28.60
70676;DHT22;59069;52.242;20.900;2023-04-24T08:32:52;28.17;25.29
70676;DHT22;59069;52.242;20.900;2023-04-24T08:35:18;28.13;25.35
70676;DHT22;59069;52.242;20.900;2023-04-24T08:37:43;27.33;25.18
70676;DHT22;59069;52.242;20.900;2023-04-24T08:40:14;26.32;27.55
70676;DHT22;59069;52.242;20.900;2023-04-24T08:42:42;25.40;30.02
70676;DHT22;59069;52.242;20.900;2023-04-24T08:45:09;25.10;32.82
70676;DHT22;59069;52.242;20.900;2023-04-24T08:47:35;24.82;33.63
70676;DHT22;59069;52.242;20.900;2023-04-24T08:50:02;24.96;31.99
70676;DHT22;59069;52.242;20.900;2023-04-24T08:52:29;25.09;36.01
70676;DHT22;59069;52.242;20.900;2023-04-24T08:54:55;25.29;31.54
70676;DHT22;59069;52.242;20.900;2023-04-24T08:57:22;24.85;31.50
70676;DHT22;59069;52.242;20.900;2023-04-24T08:59:48;24.34;32.83
70676;DHT22;59069;52.242;20.900;2023-04-24T09:02:14;23.77;34.06
70676;DHT22;59069;52.242;20.900;2023-04-24T09:04:40;23.35;35.08
70676;DHT22;59069;52.242;20.900;2023-04-24T09:07:06;23.35;37.56
70676;DHT22;59069;52.242;20.900;2023-04-24T09:09:33;23.55;35.64
70676;DHT22;59069;52.242;20.900;2023-04-24T09:11:59;23.67;34.45
70676;DHT22;59069;52.242;20.900;2023-04-24T09:14:26;23.56;34.03
70676;DHT22;59069;52.242;20.900;2023-04-24T09:16:51;23.36;33.92
70676;DHT22;59069;52.242;20.900;2023-04-24T09:19:17;23.16;34.46
70676;DHT22;59069;52.242;20.900;2023-04-24T09:21:45;23.46;38.82
70676;DHT22;59069;52.242;20.900;2023-04-24T09:24:19;24.18;36.07
70676;DHT22;59069;52.242;20.900;2023-04-24T09:26:48;24.45;32.41
70676;DHT22;59069;52.242;20.900;2023-04-24T09:29:15;24.38;32.00
70676;DHT22;59069;52.242;20.900;2023-04-24T09:31:42;24.14;32.37
70676;DHT22;59069;52.242;20.900;2023-04-24T09:34:07;24.32;33.50
70676;DHT22;59069;52.242;20.900;2023-04-24T09:36:37;24.80;32.18
70676;DHT22;59069;52.242;20.900;2023-04-24T09:39:14;25.33;33.14
70676;DHT22;59069;52.242;20.900;2023-04-24T09:41:51;26.00;30.61
70676;DHT22;59069;52.242;20.900;2023-04-24T09:44:21;26.57;30.45
70676;DHT22;59069;52.242;20.900;2023-04-24T09:46:55;26.87;28.36
70676;DHT22;59069;52.242;20.900;2023-04-24T09:49:25;26.75;29.05
70676;DHT22;59069;52.242;20.900;2023-04-24T09:51:51;26.63;29.25
70676;DHT22;59069;52.242;20.900;2023-04-24T09:54:19;26.62;28.98
70676;DHT22;59069;52.242;20.900;2023-04-24T09:56:51;26.64;29.24
70676;DHT22;59069;52.242;20.900;2023-04-24T09:59:18;26.69;29.14
70676;DHT22;59069;52.242;20.900;2023-04-24T10:01:44;27.00;30.28
70676;DHT22;59069;52.242;20.900;2023-04-24T10:04:17;27.35;28.39
70676;DHT22;59069;52.242;20.900;2023-04-24T10:06:44;27.48;26.89
70676;DHT22;59069;52.242;20.900;2023-04-24T10:09:10;27.41;27.16
70676;DHT22;59069;52.242;20.900;2023-04-24T10:11:43;27.35;27.33
70676;DHT22;59069;52.242;20.900;2023-04-24T10:14:14;27.15;28.10
70676;DHT22;59069;52.242;20.900;2023-04-24T10:16:40;27.10;28.77
70676;DHT22;59069;52.242;20.900;2023-04-24T10:19:06;27.00;28.02
70676;DHT22;59069;52.242;20.900;2023-04-24T10:21:32;26.91;28.26
70676;DHT22;59069;52.242;20.900;2023-04-24T10:23:58;26.86;28.68
70676;DHT22;59069;52.242;20.900;2023-04-24T10:26:26;26.91;27.95
70676;DHT22;59069;52.242;20.900;2023-04-24T10:28:54;26.93;27.39
70676;DHT22;59069;52.242;20.900;2023-04-24T10:31:20;27.00;29.69
70676;DHT22;59069;52.242;20.900;2023-04-24T10:33:46;27.10;28.14
70676;DHT22;59069;52.242;20.900;2023-04-24T10:36:13;27.31;27.43
70676;DHT22;59069;52.242;20.900;2023-04-24T10:38:41;27.57;27.68
70676;DHT22;59069;52.242;20.900;2023-04-24T10:41:13;27.98;28.58
70676;DHT22;59069;52.242;20.900;2023-04-24T10:43:45;28.52;26.73
70676;DHT22;59069;52.242;20.900;2023-04-24T10:46:19;28.68;26.17
70676;DHT22;59069;52.242;20.900;2023-04-24T10:48:53;28.94;26.49
70676;DHT22;59069;52.242;20.900;2023-04-24T10:51:22;29.35;26.81
70676;DHT22;59069;52.242;20.900;2023-04-24T10:53:50;29.61;23.98
70676;DHT22;59069;52.242;20.900;2023-04-24T10:56:16;29.72;24.46
70676;DHT22;59069;52.242;20.900;2023-04-24T10:58:49;29.59;24.33
70676;DHT22;59069;52.242;20.900;2023-04-24T11:01:27;29.56;25.56
70676;DHT22;59069;52.242;20.900;2023-04-24T11:03:58;29.58;24.67
70676;DHT22;59069;52.242;20.900;2023-04-24T11:06:32;29.48;24.30
70676;DHT22;59069;52.242;20.900;2023-04-24T11:09:08;29.42;24.45
70676;DHT22;59069;52.242;20.900;2023-04-24T11:11:35;29.25;24.44
70676;DHT22;59069;52.242;20.900;2023-04-24T11:14:04;29.10;24.22
70676;DHT22;59069;52.242;20.900;2023-04-24T11:16:32;28.77;24.95
70676;DHT22;59069;52.242;20.900;2023-04-24T11:19:03;28.42;25.95
70676;DHT22;59069;52.242;20.900;2023-04-24T11:27:18;29.22;25.77
70676;DHT22;59069;52.242;20.900;2023-04-24T11:29:47;29.38;24.38
70676;DHT22;59069;52.242;20.900;2023-04-24T11:32:29;29.65;24.61
70676;DHT22;59069;52.242;20.900;2023-04-24T11:37:34;30.30;24.10
70676;DHT22;59069;52.242;20.900;2023-04-24T11:40:00;30.40;23.08
70676;DHT22;59069;52.242;20.900;2023-04-24T11:42:27;30.95;24.34
70676;DHT22;59069;52.242;20.900;2023-04-24T11:44:53;30.95;20.21
70676;DHT22;59069;52.242;20.900;2023-04-24T11:47:27;30.06;21.11
70676;DHT22;59069;52.242;20.900;2023-04-24T11:49:53;29.10;22.55
70676;DHT22;59069;52.242;20.900;2023-04-24T11:52:19;28.86;25.25
70676;DHT22;59069;52.242;20.900;2023-04-24T11:54:48;28.46;23.33
70676;DHT22;59069;52.242;20.900;2023-04-24T11:57:15;28.27;24.81
70676;DHT22;59069;52.242;20.900;2023-04-24T11:59:41;28.32;25.02
70676;DHT22;59069;52.242;20.900;2023-04-24T12:02:06;28.27;24.07
70676;DHT22;59069;52.242;20.900;2023-04-24T12:04:41;28.10;22.83
70676;DHT22;59069;52.242;20.900;2023-04-24T12:07:07;27.61;22.78
70676;DHT22;59069;52.242;20.900;2023-04-24T12:09:59;26.89;23.47
70676;DHT22;59069;52.242;20.900;2023-04-24T12:12:27;26.43;24.10
70676;DHT22;59069;52.242;20.900;2023-04-24T12:14:55;26.75;26.63
70676;DHT22;59069;52.242;20.900;2023-04-24T12:17:29;27.20;24.31
70676;DHT22;59069;52.242;20.900;2023-04-24T12:20:06;27.79;25.46
70676;DHT22;59069;52.242;20.900;2023-04-24T12:25:14;28.81;23.66
70676;DHT22;59069;52.242;20.900;2023-04-24T12:27:39;29.48;23.48
70676;DHT22;59069;52.242;20.900;2023-04-24T12:30:13;29.97;23.32
70676;DHT22;59069;52.242;20.900;2023-04-24T12:32:47;30.49;21.69
70676;DHT22;59069;52.242;20.900;2023-04-24T12:35:18;30.17;20.29
70676;DHT22;59069;52.242;20.900;2023-04-24T12:37:44;29.34;20.90
70676;DHT22;59069;52.242;20.900;2023-04-24T12:40:11;28.17;21.85
70676;DHT22;59069;52.242;20.900;2023-04-24T12:42:45;27.07;22.46
70676;DHT22;59069;52.242;20.900;2023-04-24T12:45:11;26.26;23.58
70676;DHT22;59069;52.242;20.900;2023-04-24T12:47:40;25.54;24.90
70676;DHT22;59069;52.242;20.900;2023-04-24T12:50:08;24.92;26.71
70676;DHT22;59069;52.242;20.900;2023-04-24T12:52:33;24.39;28.36
70676;DHT22;59069;52.242;20.900;2023-04-24T12:55:00;23.92;29.40
70676;DHT22;59069;52.242;20.900;2023-04-24T12:57:27;23.41;29.91
70676;DHT22;59069;52.242;20.900;2023-04-24T12:59:57;22.85;30.90
70676;DHT22;59069;52.242;20.900;2023-04-24T13:02:24;22.33;32.13
70676;DHT22;59069;52.242;20.900;2023-04-24T13:04:50;21.99;33.04
70676;DHT22;59069;52.242;20.900;2023-04-24T13:07:16;21.71;33.64
70676;DHT22;59069;52.242;20.900;2023-04-24T13:09:43;21.38;33.98
70676;DHT22;59069;52.242;20.900;2023-04-24T13:12:09;21.11;34.30
70676;DHT22;59069;52.242;20.900;2023-04-24T13:14:36;20.86;34.79
70676;DHT22;59069;52.242;20.900;2023-04-24T13:17:02;20.69;35.27
70676;DHT22;59069;52.242;20.900;2023-04-24T13:19:28;20.53;35.47
70676;DHT22;59069;52.242;20.900;2023-04-24T13:21:55;20.47;35.69
70676;DHT22;59069;52.242;20.900;2023-04-24T13:24:22;20.40;35.78
70676;DHT22;59069;52.242;20.900;2023-04-24T13:26:51;20.43;35.97
70676;DHT22;59069;52.242;20.900;2023-04-24T13:29:17;20.56;35.94
70676;DHT22;59069;52.242;20.900;2023-04-24T13:31:43;20.72;35.59
70676;DHT22;59069;52.242;20.900;2023-04-24T13:34:08;20.81;35.25
70676;DHT22;59069;52.242;20.900;2023-04-24T13:36:34;21.00;34.92
70676;DHT22;59069;52.242;20.900;2023-04-24T13:39:00;21.10;34.18
70676;DHT22;59069;52.242;20.900;2023-04-24T13:41:26;21.23;33.81
70676;DHT22;59069;52.242;20.900;2023-04-24T13:43:51;21.34;33.42
70676;DHT22;59069;52.242;20.900;2023-04-24T13:46:17;21.38;32.95
70676;DHT22;59069;52.242;20.900;2023-04-24T13:48:43;21.51;33.02
70676;DHT22;59069;52.242;20.900;2023-04-24T13:51:08;21.71;32.58
70676;DHT22;59069;52.242;20.900;2023-04-24T13:53:34;21.96;32.28
70676;DHT22;59069;52.242;20.900;2023-04-24T13:56:03;22.13;31.58
70676;DHT22;59069;52.242;20.900;2023-04-24T13:58:29;22.41;31.20
70676;DHT22;59069;52.242;20.900;2023-04-24T14:00:55;23.11;31.67
70676;DHT22;59069;52.242;20.900;2023-04-24T14:03:20;24.41;30.31
70676;DHT22;59069;52.242;20.900;2023-04-24T14:05:46;25.85;28.22
70676;DHT22;59069;52.242;20.900;2023-04-24T14:08:11;27.82;26.59
70676;DHT22;59069;52.242;20.900;2023-04-24T14:10:37;28.24;23.04
70676;DHT22;59069;52.242;20.900;2023-04-24T14:13:02;28.50;25.03
70676;DHT22;59069;52.242;20.900;2023-04-24T14:15:28;29.84;23.16
70676;DHT22;59069;52.242;20.900;2023-04-24T14:17:54;31.13;22.18
70676;DHT22;59069;52.242;20.900;2023-04-24T14:20:19;31.77;20.43
70676;DHT22;59069;52.242;20.900;2023-04-24T14:22:44;30.68;19.21
70676;DHT22;59069;52.242;20.900;2023-04-24T14:25:10;29.48;20.42
70676;DHT22;59069;52.242;20.900;2023-04-24T14:27:36;29.52;22.91
70676;DHT22;59069;52.242;20.900;2023-04-24T14:30:02;28.60;21.19
70676;DHT22;59069;52.242;20.900;2023-04-24T14:32:28;27.50;22.15
70676;DHT22;59069;52.242;20.900;2023-04-24T14:34:53;26.69;23.42
70676;DHT22;59069;52.242;20.900;2023-04-24T14:37:19;26.05;24.21
70676;DHT22;59069;52.242;20.900;2023-04-24T14:39:45;25.68;24.75
70676;DHT22;59069;52.242;20.900;2023-04-24T14:42:10;25.41;24.64
70676;DHT22;59069;52.242;20.900;2023-04-24T14:44:36;25.23;24.79
70676;DHT22;59069;52.242;20.900;2023-04-24T14:47:01;25.57;25.87
70676;DHT22;59069;52.242;20.900;2023-04-24T14:49:27;27.33;26.45
70676;DHT22;59069;52.242;20.900;2023-04-24T14:51:52;28.95;23.73
70676;DHT22;59069;52.242;20.900;2023-04-24T14:54:18;30.60;22.03
70676;DHT22;59069;52.242;20.900;2023-04-24T14:56:43;31.97;20.49
70676;DHT22;59069;52.242;20.900;2023-04-24T14:59:09;32.98;19.32
70676;DHT22;59069;52.242;20.900;2023-04-24T15:01:35;32.44;18.33
70676;DHT22;59069;52.242;20.900;2023-04-24T15:04:01;32.05;19.31
70676;DHT22;59069;52.242;20.900;2023-04-24T15:06:26;32.44;18.96
70676;DHT22;59069;52.242;20.900;2023-04-24T15:08:52;32.36;18.20
70676;DHT22;59069;52.242;20.900;2023-04-24T15:11:17;31.46;18.21
70676;DHT22;59069;52.242;20.900;2023-04-24T15:13:43;30.44;18.57
70676;DHT22;59069;52.242;20.900;2023-04-24T15:16:10;29.65;19.74
70676;DHT22;59069;52.242;20.900;2023-04-24T15:18:36;28.78;19.71
70676;DHT22;59069;52.242;20.900;2023-04-24T15:21:02;27.96;20.50
70676;DHT22;59069;52.242;20.900;2023-04-24T15:23:27;27.24;21.20